Crevillente, Spain
Current Conditions -  °F | °C
As of 6:30 PM on Monday 22 Dec 2014 (Local Time) from LEAL Reporting Station
Few Clouds Few Clouds  
Wind Chill: 12°   Ceiling: Unl
Heat Index: 12°   Visibility: 6mi
Dew Point: 10°   Wind: 0mph
Humidity: 88%   Direction: NA
Pressure: 30.45"   Gusts: NA
Location:  38.25°N, 0.81°W
Report Text: LEAL 221730Z 00000KT 9999 FEW018 12/10 Q1031 NOSIG
Loading
Personal Weather Stations






























Interactive Weather Map New forecast layout! Learn more

10-Day Weather Forecast

Advertisements
Track Severe Weather on mobile